createdAt,value
2022-11-25T00:00:34.092Z,73.01
2022-11-25T00:03:01.018Z,72.49
2022-11-25T00:05:28.681Z,72.34
2022-11-25T00:07:55.379Z,71.28
2022-11-25T00:10:22.192Z,75.41
2022-11-25T00:12:48.877Z,72.77
2022-11-25T00:15:15.681Z,75.06
2022-11-25T00:17:42.325Z,74.34
2022-11-25T00:20:09.192Z,73.08
2022-11-25T00:22:35.846Z,74.14
2022-11-25T00:25:02.601Z,72.30
2022-11-25T00:27:29.362Z,71.72
2022-11-25T00:29:56.076Z,71.81
2022-11-25T00:32:22.842Z,71.93
2022-11-25T00:34:49.663Z,75.53
2022-11-25T00:37:16.305Z,77.05
2022-11-25T00:39:43.003Z,75.20
2022-11-25T00:42:29.344Z,75.81
2022-11-25T00:44:57.106Z,74.81
2022-11-25T00:47:23.816Z,74.65
2022-11-25T00:49:52.325Z,74.43
2022-11-25T00:52:26.335Z,73.56
2022-11-25T00:54:53.550Z,73.40
2022-11-25T00:57:21.798Z,73.84
2022-11-25T00:59:48.485Z,74.05
2022-11-25T01:02:16.067Z,75.87
2022-11-25T01:04:43.211Z,75.86
2022-11-25T01:07:09.981Z,74.05
2022-11-25T01:09:37.705Z,74.75
2022-11-25T01:12:05.162Z,73.98
2022-11-25T01:14:32.484Z,74.16
2022-11-25T01:16:59.266Z,74.32
2022-11-25T01:19:26.141Z,73.90
2022-11-25T01:21:52.797Z,73.52
2022-11-25T01:24:19.648Z,73.33
2022-11-25T01:26:46.325Z,72.77
2022-11-25T01:29:15.194Z,72.24
2022-11-25T01:31:43.213Z,71.81
2022-11-25T01:34:13.227Z,71.51
2022-11-25T01:36:40.090Z,71.04
2022-11-25T01:39:06.896Z,70.81
2022-11-25T01:41:35.059Z,70.62
2022-11-25T01:44:22.197Z,70.10
2022-11-25T01:47:13.579Z,70.15
2022-11-25T01:49:50.468Z,69.61
2022-11-25T01:52:17.549Z,69.92
2022-11-25T01:54:56.030Z,70.21
2022-11-25T01:57:28.636Z,70.06
2022-11-25T01:59:58.227Z,70.38
2022-11-25T02:02:25.265Z,69.43
2022-11-25T02:04:52.582Z,72.41
2022-11-25T02:07:26.287Z,70.53
2022-11-25T02:09:54.346Z,70.15
2022-11-25T02:12:22.414Z,71.08
2022-11-25T02:14:50.996Z,70.61
2022-11-25T02:17:17.941Z,70.72
2022-11-25T02:19:59.533Z,71.09
2022-11-25T02:22:32.342Z,71.42
2022-11-25T02:25:03.753Z,71.83
2022-11-25T02:27:30.502Z,71.18
2022-11-25T02:29:57.359Z,73.61
2022-11-25T02:32:24.149Z,73.53
2022-11-25T02:34:50.902Z,77.89
2022-11-25T02:37:19.144Z,76.48
2022-11-25T02:39:47.912Z,74.26
2022-11-25T02:42:15.431Z,72.97
2022-11-25T02:44:42.121Z,72.79
2022-11-25T02:47:08.862Z,73.15
2022-11-25T02:49:35.604Z,72.99
2022-11-25T02:52:02.841Z,72.40
2022-11-25T02:54:29.697Z,72.08
2022-11-25T02:56:56.421Z,71.98
2022-11-25T02:59:23.161Z,71.30
2022-11-25T03:01:49.894Z,71.21
2022-11-25T03:04:16.909Z,71.23
2022-11-25T03:06:43.585Z,70.73
2022-11-25T03:09:10.393Z,70.42
2022-11-25T03:12:15.355Z,70.07
2022-11-25T03:14:42.021Z,69.67
2022-11-25T03:17:08.912Z,69.42
2022-11-25T03:19:40.163Z,68.94
2022-11-25T03:22:06.833Z,68.96
2022-11-25T03:24:34.046Z,69.12
2022-11-25T03:27:01.069Z,68.65
2022-11-25T03:29:27.750Z,67.31
2022-11-25T03:31:54.556Z,67.61
2022-11-25T03:34:21.318Z,68.80
2022-11-25T03:36:48.154Z,68.96
2022-11-25T03:39:15.013Z,68.35
2022-11-25T03:41:41.722Z,68.55
2022-11-25T03:44:08.466Z,68.14
2022-11-25T03:46:35.260Z,66.79
2022-11-25T03:49:01.993Z,67.34
2022-11-25T03:51:28.768Z,67.22
2022-11-25T03:53:55.498Z,67.71
2022-11-25T03:56:22.202Z,67.85
2022-11-25T03:58:48.982Z,67.52
2022-11-25T04:01:15.707Z,68.65
2022-11-25T04:03:42.462Z,68.33
2022-11-25T04:06:09.139Z,67.46
2022-11-25T04:08:35.939Z,69.02
2022-11-25T04:11:02.761Z,68.53
2022-11-25T04:13:29.620Z,68.04
2022-11-25T04:15:56.466Z,68.67
2022-11-25T04:18:23.157Z,69.37
2022-11-25T04:20:50.004Z,69.72
2022-11-25T04:23:16.765Z,71.25
2022-11-25T04:25:43.630Z,68.77
2022-11-25T04:28:10.531Z,68.84
2022-11-25T04:30:37.678Z,69.51
2022-11-25T04:33:04.470Z,68.66
2022-11-25T04:35:31.127Z,68.68
2022-11-25T04:37:57.818Z,70.26
2022-11-25T04:40:25.117Z,69.94
2022-11-25T04:42:56.105Z,69.46
2022-11-25T04:45:27.011Z,68.76
2022-11-25T04:47:53.858Z,68.57
2022-11-25T04:50:33.283Z,67.75
2022-11-25T04:53:00.136Z,67.92
2022-11-25T04:55:26.865Z,68.17
2022-11-25T04:57:53.577Z,68.83
2022-11-25T05:00:20.657Z,69.29
2022-11-25T05:02:47.467Z,69.05
2022-11-25T05:05:14.245Z,68.68
2022-11-25T05:07:41.327Z,68.50
2022-11-25T05:10:08.700Z,68.81
2022-11-25T05:12:35.828Z,68.52
2022-11-25T05:15:02.566Z,68.28
2022-11-25T05:17:30.509Z,68.64
2022-11-25T05:19:57.279Z,68.48
2022-11-25T05:22:25.163Z,67.01
2022-11-25T05:24:52.005Z,68.75
2022-11-25T05:27:18.753Z,69.27
2022-11-25T05:29:46.786Z,69.68
2022-11-25T05:32:16.071Z,69.07
2022-11-25T05:34:43.096Z,69.62
2022-11-25T05:37:10.493Z,71.06
2022-11-25T05:39:37.309Z,69.58
2022-11-25T05:42:04.092Z,70.05
2022-11-25T05:44:30.837Z,69.28
2022-11-25T05:46:57.629Z,69.11
2022-11-25T05:49:24.938Z,69.63
2022-11-25T05:51:51.987Z,69.11
2022-11-25T05:54:18.662Z,70.46
2022-11-25T05:56:45.382Z,68.73
2022-11-25T05:59:12.024Z,69.45
2022-11-25T06:01:38.900Z,69.21
2022-11-25T06:04:05.705Z,69.04
2022-11-25T06:06:33.877Z,68.70
2022-11-25T06:09:01.127Z,69.45
2022-11-25T06:11:28.068Z,69.84
2022-11-25T06:13:56.699Z,69.48
2022-11-25T06:16:23.640Z,70.13
2022-11-25T06:18:50.474Z,69.70
2022-11-25T06:21:17.983Z,69.59
2022-11-25T06:23:47.498Z,69.70
2022-11-25T06:26:15.924Z,69.28
2022-11-25T06:28:42.742Z,69.31
2022-11-25T06:31:14.713Z,69.20
2022-11-25T06:33:41.944Z,69.20
2022-11-25T06:36:13.935Z,68.06
2022-11-25T06:38:40.626Z,67.71
2022-11-25T06:41:07.346Z,66.97
2022-11-25T06:43:33.986Z,67.67
2022-11-25T06:46:05.270Z,69.37
2022-11-25T06:48:32.203Z,71.12
2022-11-25T06:50:59.697Z,71.70
2022-11-25T06:53:27.132Z,70.19
2022-11-25T06:56:02.771Z,68.36
2022-11-25T06:58:35.774Z,65.78
2022-11-25T07:01:07.674Z,62.65
2022-11-25T07:03:36.316Z,59.53
2022-11-25T07:06:03.734Z,57.80
2022-11-25T07:08:34.114Z,56.49
2022-11-25T07:11:06.611Z,56.32
2022-11-25T07:13:33.870Z,54.96
2022-11-25T07:16:01.574Z,53.51
2022-11-25T07:18:30.049Z,52.37
2022-11-25T07:20:56.706Z,51.31
2022-11-25T07:23:23.398Z,50.70
2022-11-25T07:25:50.170Z,49.84
2022-11-25T07:28:16.886Z,48.51
2022-11-25T07:33:30.770Z,47.22
2022-11-25T07:36:01.249Z,47.63
2022-11-25T07:38:28.113Z,47.19
2022-11-25T07:40:54.828Z,46.77
2022-11-25T07:43:23.692Z,47.11
2022-11-25T07:45:50.608Z,46.97
2022-11-25T07:48:17.445Z,45.94
2022-11-25T07:50:44.122Z,46.63
2022-11-25T07:53:10.740Z,46.09
2022-11-25T07:55:37.995Z,46.46
2022-11-25T07:58:05.082Z,45.53
2022-11-25T08:00:32.302Z,45.08
2022-11-25T08:02:59.518Z,45.29
2022-11-25T08:05:26.229Z,45.09
2022-11-25T08:07:52.947Z,44.47
2022-11-25T08:10:19.775Z,44.73
2022-11-25T08:12:46.688Z,45.04
2022-11-25T08:15:13.460Z,45.32
2022-11-25T08:17:40.818Z,46.17
2022-11-25T08:20:07.855Z,46.18
2022-11-25T08:22:34.659Z,46.88
2022-11-25T08:25:01.404Z,47.59
2022-11-25T08:27:28.212Z,47.57
2022-11-25T08:29:55.179Z,48.15
2022-11-25T08:32:21.939Z,47.09
2022-11-25T08:34:48.658Z,47.21
2022-11-25T08:37:15.414Z,46.77
2022-11-25T08:39:52.530Z,46.86
2022-11-25T08:42:20.153Z,47.31
2022-11-25T08:44:51.193Z,46.44
2022-11-25T08:47:18.013Z,46.28
2022-11-25T08:49:45.879Z,46.02
2022-11-25T08:52:12.772Z,45.64
2022-11-25T08:54:39.610Z,45.55
2022-11-25T08:57:06.521Z,45.43
2022-11-25T08:59:33.724Z,45.92
2022-11-25T09:02:01.346Z,45.98
2022-11-25T09:04:37.869Z,44.00
2022-11-25T09:07:04.942Z,44.07
2022-11-25T09:09:31.733Z,44.56
2022-11-25T09:11:58.740Z,46.64
2022-11-25T09:14:25.734Z,46.84
2022-11-25T09:16:52.868Z,46.27
2022-11-25T09:19:20.627Z,48.28
2022-11-25T09:21:47.394Z,47.60
2022-11-25T09:24:14.162Z,47.33
2022-11-25T09:26:42.535Z,47.80
2022-11-25T09:29:11.238Z,44.70
2022-11-25T09:31:38.231Z,47.36
2022-11-25T09:34:05.118Z,46.05
2022-11-25T09:36:31.838Z,44.49
2022-11-25T09:38:58.790Z,45.84
2022-11-25T09:41:45.630Z,44.74
2022-11-25T09:44:43.282Z,44.63
2022-11-25T09:47:33.310Z,42.46
2022-11-25T09:50:10.273Z,44.62
2022-11-25T09:52:43.055Z,43.92
2022-11-25T09:55:17.022Z,43.05
2022-11-25T09:57:59.410Z,42.84
2022-11-25T10:00:30.989Z,42.46
2022-11-25T10:03:13.332Z,42.67
2022-11-25T10:05:47.784Z,41.55
2022-11-25T10:08:25.659Z,41.93
2022-11-25T10:10:55.885Z,41.35
2022-11-25T10:13:28.257Z,43.60
2022-11-25T10:15:58.526Z,42.93
2022-11-25T10:18:30.872Z,43.09
2022-11-25T10:20:57.952Z,40.16
2022-11-25T10:23:28.609Z,39.28
2022-11-25T10:26:01.543Z,38.41
2022-11-25T10:28:33.090Z,38.92
2022-11-25T10:31:15.098Z,38.90
2022-11-25T10:33:49.293Z,38.23
2022-11-25T10:36:21.564Z,38.47
2022-11-25T10:38:54.605Z,37.60
2022-11-25T10:41:24.140Z,36.87
2022-11-25T10:43:51.001Z,36.49
2022-11-25T10:47:13.431Z,37.07
2022-11-25T10:49:50.055Z,37.26
2022-11-25T10:52:20.979Z,36.36
2022-11-25T10:54:57.832Z,34.70
2022-11-25T10:57:28.202Z,35.46
2022-11-25T10:59:56.872Z,36.70
2022-11-25T11:02:31.068Z,35.75
2022-11-25T11:05:03.527Z,35.09
2022-11-25T11:07:33.655Z,34.20
2022-11-25T11:10:13.981Z,34.46
2022-11-25T11:12:59.599Z,34.05
2022-11-25T11:15:30.808Z,34.01
2022-11-25T11:17:59.197Z,33.50
2022-11-25T11:20:27.642Z,33.34
2022-11-25T11:23:09.624Z,34.43
2022-11-25T11:25:37.723Z,34.63
2022-11-25T11:28:24.211Z,33.75
2022-11-25T11:30:57.483Z,34.87
2022-11-25T11:33:34.262Z,34.74
2022-11-25T11:36:22.648Z,35.93
2022-11-25T11:39:01.550Z,34.46
2022-11-25T11:41:36.224Z,33.94
2022-11-25T11:44:03.046Z,37.84
2022-11-25T11:46:40.302Z,37.81
2022-11-25T11:49:18.897Z,38.30
2022-11-25T11:51:51.531Z,37.44
2022-11-25T11:54:28.141Z,37.25
2022-11-25T11:57:04.163Z,36.04
2022-11-25T11:59:52.829Z,34.97
2022-11-25T12:02:22.347Z,34.34
2022-11-25T12:05:08.414Z,33.48
2022-11-25T12:07:35.253Z,34.08
2022-11-25T12:10:17.353Z,32.08
2022-11-25T12:13:13.825Z,33.12
2022-11-25T12:16:01.059Z,32.92
2022-11-25T12:18:46.516Z,34.57
2022-11-25T12:21:36.327Z,36.73
2022-11-25T12:24:14.030Z,40.15
2022-11-25T12:26:44.013Z,34.75
2022-11-25T12:29:14.281Z,34.83
2022-11-25T12:31:45.918Z,35.92
2022-11-25T12:34:17.694Z,33.82
2022-11-25T12:36:46.299Z,33.38
2022-11-25T12:39:31.419Z,34.37
2022-11-25T12:42:01.603Z,34.62
2022-11-25T12:44:31.668Z,34.40
2022-11-25T12:46:58.970Z,34.69
2022-11-25T12:49:27.235Z,34.30
2022-11-25T12:52:09.727Z,33.34
2022-11-25T12:54:55.433Z,36.14
2022-11-25T12:57:45.853Z,34.62
2022-11-25T13:00:40.548Z,33.89
2022-11-25T13:03:31.838Z,33.24
2022-11-25T13:06:04.543Z,33.98
2022-11-25T13:08:45.915Z,35.34
2022-11-25T13:11:27.462Z,35.11
2022-11-25T13:13:54.687Z,35.93
2022-11-25T13:16:22.462Z,36.31
2022-11-25T13:18:50.024Z,35.71
2022-11-25T13:21:18.414Z,35.97
2022-11-25T13:23:49.463Z,36.62
2022-11-25T13:26:28.840Z,36.39
2022-11-25T13:28:56.044Z,34.48
2022-11-25T13:31:31.626Z,35.33
2022-11-25T13:33:58.396Z,35.59
2022-11-25T13:36:26.405Z,34.86
2022-11-25T13:38:53.233Z,36.17
2022-11-25T13:41:19.953Z,34.80
2022-11-25T13:44:01.748Z,34.86
2022-11-25T13:46:35.133Z,36.38
2022-11-25T13:49:02.343Z,35.39
2022-11-25T13:51:29.276Z,36.62
2022-11-25T13:53:55.942Z,36.50
2022-11-25T13:56:26.605Z,35.75
2022-11-25T13:59:11.779Z,37.04
2022-11-25T14:01:40.343Z,37.01
2022-11-25T14:04:12.459Z,37.11
2022-11-25T14:06:51.402Z,38.12
2022-11-25T14:09:53.773Z,38.30
2022-11-25T14:12:38.823Z,38.33
2022-11-25T14:15:15.654Z,39.40
2022-11-25T14:17:42.298Z,39.11
2022-11-25T14:20:21.113Z,39.28
2022-11-25T14:23:09.431Z,39.26
2022-11-25T14:26:16.329Z,39.36
2022-11-25T14:29:06.593Z,39.71
2022-11-25T14:31:38.343Z,40.78
2022-11-25T14:34:10.961Z,41.02
2022-11-25T14:36:43.246Z,41.09
2022-11-25T14:39:14.441Z,40.76
2022-11-25T14:42:13.811Z,40.90
2022-11-25T14:44:55.996Z,41.14
2022-11-25T14:47:24.197Z,42.53
2022-11-25T14:50:05.738Z,44.27
2022-11-25T14:52:42.785Z,45.93
2022-11-25T14:55:10.278Z,45.59
2022-11-25T14:57:38.729Z,45.92
2022-11-25T15:00:10.360Z,46.00
2022-11-25T15:02:40.362Z,46.34
2022-11-25T15:05:21.180Z,47.10
2022-11-25T15:07:59.557Z,47.17
2022-11-25T15:10:32.443Z,48.35
2022-11-25T15:13:00.575Z,50.38
2022-11-25T15:15:27.958Z,50.51
2022-11-25T15:17:55.513Z,49.24
2022-11-25T15:20:25.971Z,51.08
2022-11-25T15:22:52.975Z,48.96
2022-11-25T15:25:20.092Z,48.66
2022-11-25T15:27:49.233Z,49.08
2022-11-25T15:30:20.435Z,49.33
2022-11-25T15:32:47.444Z,51.38
2022-11-25T15:35:19.828Z,52.02
2022-11-25T15:37:46.521Z,53.10
2022-11-25T15:40:32.124Z,52.49
2022-11-25T15:42:59.885Z,52.51
2022-11-25T15:45:27.792Z,52.86
2022-11-25T15:47:56.420Z,53.12
2022-11-25T15:50:24.647Z,53.18
2022-11-25T15:52:56.142Z,52.64
2022-11-25T15:55:33.641Z,53.31
2022-11-25T15:58:06.063Z,54.33
2022-11-25T16:00:32.966Z,53.48
2022-11-25T16:03:00.937Z,53.49
2022-11-25T16:05:29.418Z,53.35
2022-11-25T16:07:56.064Z,53.39
2022-11-25T16:10:27.734Z,53.69
2022-11-25T16:13:15.718Z,53.91
2022-11-25T16:15:49.574Z,54.05
2022-11-25T16:18:39.286Z,54.30
2022-11-25T16:21:24.152Z,53.93
2022-11-25T16:23:52.649Z,54.98
2022-11-25T16:26:27.992Z,55.88
2022-11-25T16:28:56.337Z,57.86
2022-11-25T16:31:23.869Z,57.45
2022-11-25T16:33:53.261Z,57.82
2022-11-25T16:36:19.926Z,57.14
2022-11-25T16:38:51.435Z,57.00
2022-11-25T16:41:21.033Z,55.61
2022-11-25T16:43:47.728Z,55.48
2022-11-25T16:46:16.122Z,57.07
2022-11-25T16:48:42.831Z,56.16
2022-11-25T16:51:14.930Z,56.67
2022-11-25T16:53:41.741Z,58.72
2022-11-25T16:56:12.004Z,58.45
2022-11-25T16:58:38.723Z,57.83
2022-11-25T17:01:05.869Z,57.67
2022-11-25T17:03:32.746Z,57.05
2022-11-25T17:06:00.266Z,56.19
2022-11-25T17:08:27.063Z,55.87
2022-11-25T17:10:57.548Z,57.35
2022-11-25T17:13:24.724Z,58.41
2022-11-25T17:15:51.689Z,58.62
2022-11-25T17:18:19.484Z,59.32
2022-11-25T17:20:46.910Z,58.44
2022-11-25T17:23:15.427Z,58.51
2022-11-25T17:25:48.789Z,59.28
2022-11-25T17:28:20.399Z,59.97
2022-11-25T17:30:48.306Z,60.41
2022-11-25T17:33:16.555Z,60.52
2022-11-25T17:35:43.608Z,59.87
2022-11-25T17:38:20.482Z,60.36
2022-11-25T17:40:47.380Z,60.05
2022-11-25T17:43:15.799Z,60.49
2022-11-25T17:45:43.458Z,59.73
2022-11-25T17:48:15.046Z,60.30
2022-11-25T17:50:42.178Z,59.95
2022-11-25T17:53:09.902Z,60.50
2022-11-25T17:55:37.235Z,59.83
2022-11-25T17:58:04.130Z,60.49
2022-11-25T18:00:32.801Z,61.93
2022-11-25T18:02:59.813Z,62.15
2022-11-25T18:05:27.085Z,61.99
2022-11-25T18:07:54.196Z,62.30
2022-11-25T18:10:23.378Z,61.77
2022-11-25T18:12:53.255Z,62.09
2022-11-25T18:15:39.188Z,61.67
2022-11-25T18:18:11.235Z,61.78
2022-11-25T18:20:38.047Z,61.09
2022-11-25T18:23:04.834Z,60.77
2022-11-25T18:25:33.266Z,60.36
2022-11-25T18:28:00.658Z,62.04
2022-11-25T18:30:29.002Z,61.62
2022-11-25T18:32:57.490Z,61.89
2022-11-25T18:35:27.830Z,61.91
2022-11-25T18:37:58.263Z,61.26
2022-11-25T18:40:26.075Z,61.29
2022-11-25T18:42:59.813Z,62.49
2022-11-25T18:45:46.854Z,62.55
2022-11-25T18:48:18.924Z,61.91
2022-11-25T18:50:46.507Z,61.57
2022-11-25T18:53:13.775Z,62.29
2022-11-25T18:55:45.784Z,61.82
2022-11-25T18:58:20.216Z,62.22
2022-11-25T19:00:51.050Z,62.21
2022-11-25T19:03:19.557Z,62.56
2022-11-25T19:05:47.811Z,62.20
2022-11-25T19:08:15.095Z,62.04
2022-11-25T19:10:43.613Z,61.49
2022-11-25T19:13:32.026Z,62.25
2022-11-25T19:16:09.570Z,61.83
2022-11-25T19:18:37.048Z,62.87
2022-11-25T19:21:03.929Z,63.43
2022-11-25T19:23:36.160Z,62.39
2022-11-25T19:26:07.816Z,62.10
2022-11-25T19:28:35.027Z,61.22
2022-11-25T19:31:04.836Z,61.96
2022-11-25T19:33:34.400Z,61.65
2022-11-25T19:36:01.689Z,62.39
2022-11-25T19:38:28.553Z,61.87
2022-11-25T19:40:56.423Z,62.96
2022-11-25T19:43:24.046Z,62.98
2022-11-25T19:45:51.033Z,62.87
2022-11-25T19:48:19.173Z,62.58
2022-11-25T19:50:46.996Z,62.72
2022-11-25T19:53:18.400Z,62.73
2022-11-25T19:55:45.421Z,63.35
2022-11-25T19:58:12.381Z,63.37
2022-11-25T20:00:39.776Z,63.20
2022-11-25T20:03:11.204Z,63.80
2022-11-25T20:05:38.346Z,63.73
2022-11-25T20:08:06.653Z,63.23
2022-11-25T20:10:34.074Z,63.32
2022-11-25T20:13:00.847Z,63.74
2022-11-25T20:15:27.668Z,63.07
2022-11-25T20:17:56.237Z,62.95
2022-11-25T20:20:25.109Z,63.00
2022-11-25T20:22:56.540Z,62.40
2022-11-25T20:25:23.927Z,62.94
2022-11-25T20:27:50.725Z,62.60
2022-11-25T20:30:22.714Z,62.06
2022-11-25T20:32:49.668Z,62.90
2022-11-25T20:35:16.483Z,62.49
2022-11-25T20:37:58.309Z,64.18
2022-11-25T20:40:26.755Z,64.26
2022-11-25T20:42:53.897Z,64.00
2022-11-25T20:45:21.762Z,63.54
2022-11-25T20:47:53.072Z,63.59
2022-11-25T20:50:31.617Z,64.56
2022-11-25T20:53:04.887Z,64.76
2022-11-25T20:55:35.936Z,64.82
2022-11-25T20:58:03.576Z,64.25
2022-11-25T21:00:31.213Z,64.06
2022-11-25T21:02:57.901Z,65.91
2022-11-25T21:05:26.709Z,63.26
2022-11-25T21:07:54.663Z,63.56
2022-11-25T21:10:24.053Z,64.13
2022-11-25T21:12:51.580Z,65.04
2022-11-25T21:15:21.146Z,65.01
2022-11-25T21:17:48.063Z,64.46
2022-11-25T21:20:15.104Z,64.70
2022-11-25T21:22:44.161Z,64.22
2022-11-25T21:25:12.637Z,64.29
2022-11-25T21:27:40.370Z,65.46
2022-11-25T21:30:07.803Z,64.94
2022-11-25T21:32:35.498Z,65.18
2022-11-25T21:35:04.267Z,63.98
2022-11-25T21:37:40.960Z,64.23
2022-11-25T21:40:32.178Z,64.69
2022-11-25T21:42:59.390Z,66.17
2022-11-25T21:45:26.346Z,66.35
2022-11-25T21:47:53.386Z,66.67
2022-11-25T21:50:20.537Z,65.60
2022-11-25T21:52:47.823Z,65.40
2022-11-25T21:55:15.387Z,65.10
2022-11-25T21:57:42.346Z,65.62
2022-11-25T22:00:20.603Z,65.14
2022-11-25T22:02:47.511Z,64.68
2022-11-25T22:05:15.945Z,64.32
2022-11-25T22:07:43.050Z,63.98
2022-11-25T22:10:10.367Z,63.78
2022-11-25T22:12:41.317Z,63.71
2022-11-25T22:15:29.011Z,63.94
2022-11-25T22:17:57.561Z,63.66
2022-11-25T22:20:30.634Z,63.58
2022-11-25T22:22:57.423Z,63.54
2022-11-25T22:25:25.797Z,63.64
2022-11-25T22:27:53.650Z,63.70
2022-11-25T22:30:21.852Z,64.02
2022-11-25T22:32:52.836Z,63.96
2022-11-25T22:35:20.951Z,63.52
2022-11-25T22:37:53.492Z,63.13
2022-11-25T22:40:22.518Z,62.55
2022-11-25T22:42:50.471Z,63.45
2022-11-25T22:45:24.658Z,63.03
2022-11-25T22:47:52.114Z,62.77
2022-11-25T22:50:22.072Z,62.80
2022-11-25T22:52:49.052Z,62.65
2022-11-25T22:55:17.523Z,62.73
2022-11-25T22:57:44.652Z,62.33
2022-11-25T23:00:12.933Z,62.59
2022-11-25T23:02:39.664Z,62.64
2022-11-25T23:05:13.499Z,63.49
2022-11-25T23:07:40.240Z,64.12
2022-11-25T23:10:13.756Z,63.63
2022-11-25T23:12:40.439Z,64.64
2022-11-25T23:15:07.274Z,64.97
2022-11-25T23:17:34.235Z,63.58
2022-11-25T23:20:02.380Z,64.71
2022-11-25T23:22:29.088Z,65.08
2022-11-25T23:24:55.848Z,64.70
2022-11-25T23:27:22.597Z,64.53
2022-11-25T23:29:49.442Z,64.49
2022-11-25T23:32:18.796Z,64.53
2022-11-25T23:34:46.194Z,64.23
2022-11-25T23:37:13.820Z,64.23
2022-11-25T23:39:42.149Z,63.59
2022-11-25T23:42:31.822Z,63.38
2022-11-25T23:44:59.837Z,63.06
2022-11-25T23:47:26.543Z,63.09
2022-11-25T23:49:55.741Z,63.42
2022-11-25T23:52:24.412Z,63.50
2022-11-25T23:54:52.588Z,63.07
2022-11-25T23:57:21.262Z,63.35
2022-11-25T23:59:48.446Z,63.42
